Briefing drone pour Louviers

Rechercher une autre localisation

Conditions de vol :


Nous sommes le : Mardi 13 avril 2021
Il est 10:19 UTC (12:19 LT)

Lever de soleil : 04:40 UTC (06:40 LT)
Coucher de soleil : 19:10 UTC (21:10 LT)

Météo

L'essentiel des conditions de vol

VIGILANCE MÉTÉO FRANCE - Eure (27)
Pas de vigilances particulieres
CARTES DES FRONTS
METAR de LFOP
LFOP 131000Z AUTO 09006KT 050V130 9999 FEW039 08/M01 Q1033 NOSIG

Date d'émission: 13/04/2021
Heure d'émission: 10:00 UTC
Vent: 090° (variable du 050° au 130°) pour 6 KT (11 km/h)
Visibilité horizontale: > 10 km
Plafond :
- Peu de nuages à 3900ft (1189m)
Température: 8 °C
Point de rosée: -1 °C
Humidité: 53%
Pression (QNH): 1033 hPa
Conditions: Pas de changement dans les 2 heures (NOSIG)
TAF de LFOP
LFOP 130500Z 1306/1406 03005KT CAVOK

Conditions prévues :

Heure d'émission : Bulletin éffectué le 13 à 06:00 UTC
Prévision : Valide du 13 a 06:00 UTC au 14 a 06:00 UTC
Vent : 30° pour 5 KT (9 km/h)
Visibilité : > 10 km
WEBCAM POUR LOUVIERS

Réglementation

Voler en sécurité

CARTES AERONAUTIQUE 1/500.000
CARTES VAC (LFOP)
SUP AIP




Chargement des AIP...
NOTAM (LOUVIERS + Terrain à proximité / FIR )




Chargement des NOTAMS...
CONTACT PREFECTURE 27


Avertissement : Les données mises à disposition sont indicatives. Oxygène Drone ne pourra être tenu responsable de dégâts causés aux biens et aux personnes.